createdAt,value
2018-05-19T00:00:46.012Z,101384
2018-05-19T00:03:14.146Z,101384
2018-05-19T00:05:42.335Z,101380
2018-05-19T00:08:11.201Z,101382
2018-05-19T00:10:39.351Z,101384
2018-05-19T00:13:08.256Z,101383
2018-05-19T00:15:37.169Z,101386
2018-05-19T00:18:05.309Z,101394
2018-05-19T00:20:34.204Z,101400
2018-05-19T00:23:03.114Z,101395
2018-05-19T00:25:31.241Z,101395
2018-05-19T00:27:59.381Z,101403
2018-05-19T00:30:27.655Z,101393
2018-05-19T00:32:55.815Z,101389
2018-05-19T00:35:23.979Z,101392
2018-05-19T00:37:52.094Z,101389
2018-05-19T00:40:20.225Z,101384
2018-05-19T00:42:48.349Z,101378
2018-05-19T00:45:16.483Z,101382
2018-05-19T00:47:44.621Z,101372
2018-05-19T00:50:13.504Z,101381
2018-05-19T00:52:42.409Z,101375
2018-05-19T00:55:10.706Z,101375
2018-05-19T00:57:38.884Z,101391
2018-05-19T01:00:07.027Z,101381
2018-05-19T01:02:35.961Z,101381
2018-05-19T01:05:04.098Z,101373
2018-05-19T01:07:32.228Z,101382
2018-05-19T01:10:00.366Z,101386
2018-05-19T01:12:28.557Z,101385
2018-05-19T01:14:56.680Z,101384
2018-05-19T01:17:25.581Z,101371
2018-05-19T01:19:53.786Z,101371
2018-05-19T01:22:21.961Z,101377
2018-05-19T01:24:50.083Z,101382
2018-05-19T01:27:18.994Z,101385
2018-05-19T01:29:47.149Z,101382
2018-05-19T01:32:15.335Z,101388
2018-05-19T01:34:43.513Z,101379
2018-05-19T01:37:11.656Z,101384
2018-05-19T01:39:40.565Z,101389
2018-05-19T01:42:08.693Z,101388
2018-05-19T01:44:36.842Z,101394
2018-05-19T01:47:04.975Z,101375
2018-05-19T01:49:33.886Z,101390
2018-05-19T01:52:03.033Z,101388
2018-05-19T01:54:31.950Z,101389
2018-05-19T01:57:00.874Z,101385
2018-05-19T01:59:29.009Z,101400
2018-05-19T02:01:57.896Z,101395
2018-05-19T02:04:26.798Z,101405
2018-05-19T02:06:54.959Z,101412
2018-05-19T02:09:23.948Z,101405
2018-05-19T02:11:52.832Z,101392
2018-05-19T02:14:21.738Z,101405
2018-05-19T02:16:49.880Z,101408
2018-05-19T02:19:18.027Z,101407
2018-05-19T02:21:46.202Z,101404
2018-05-19T02:24:14.340Z,101401
2018-05-19T02:26:42.476Z,101401
2018-05-19T02:29:10.631Z,101400
2018-05-19T02:31:38.776Z,101396
2018-05-19T02:34:06.961Z,101393
2018-05-19T02:36:35.091Z,101389
2018-05-19T02:39:03.249Z,101390
2018-05-19T02:41:31.360Z,101385
2018-05-19T02:43:59.499Z,101382
2018-05-19T02:46:28.399Z,101384
2018-05-19T02:48:57.305Z,101391
2018-05-19T02:51:25.444Z,101385
2018-05-19T02:53:54.363Z,101390
2018-05-19T02:56:22.513Z,101394
2018-05-19T02:58:51.441Z,101392
2018-05-19T03:01:19.578Z,101389
2018-05-19T03:03:48.494Z,101387
2018-05-19T03:06:16.644Z,101389
2018-05-19T03:08:45.560Z,101385
2018-05-19T03:11:13.701Z,101385
2018-05-19T03:13:42.596Z,101390
2018-05-19T03:16:11.485Z,101406
2018-05-19T03:18:40.823Z,101407
2018-05-19T03:21:08.966Z,101406
2018-05-19T03:23:37.101Z,101395
2018-05-19T03:26:05.251Z,101399
2018-05-19T03:28:33.401Z,101407
2018-05-19T03:31:01.557Z,101408
2018-05-19T03:33:29.704Z,101415
2018-05-19T03:35:57.891Z,101406
2018-05-19T03:38:26.015Z,101426
2018-05-19T03:40:54.176Z,101409
2018-05-19T03:43:22.350Z,101417
2018-05-19T03:45:50.496Z,101417
2018-05-19T03:48:18.620Z,101418
2018-05-19T03:50:46.774Z,101412
2018-05-19T03:53:14.931Z,101422
2018-05-19T03:55:43.070Z,101423
2018-05-19T03:58:29.657Z,101433
2018-05-19T04:01:15.801Z,101439
2018-05-19T04:03:43.933Z,101430
2018-05-19T04:06:12.921Z,101435
2018-05-19T04:08:41.902Z,101433
2018-05-19T04:11:10.064Z,101448
2018-05-19T04:13:38.222Z,101438
2018-05-19T04:16:06.357Z,101445
2018-05-19T04:18:34.498Z,101443
2018-05-19T04:21:02.739Z,101439
2018-05-19T04:23:30.871Z,101447
2018-05-19T04:25:59.006Z,101453
2018-05-19T04:28:27.162Z,101461
2018-05-19T04:30:55.305Z,101449
2018-05-19T04:33:23.456Z,101457
2018-05-19T04:35:52.378Z,101458
2018-05-19T04:38:20.526Z,101455
2018-05-19T04:40:48.669Z,101460
2018-05-19T04:43:16.800Z,101463
2018-05-19T04:45:45.005Z,101457
2018-05-19T04:48:13.137Z,101466
2018-05-19T04:50:41.318Z,101456
2018-05-19T04:53:09.496Z,101462
2018-05-19T04:55:39.183Z,101467
2018-05-19T04:58:07.392Z,101461
2018-05-19T05:00:35.540Z,101466
2018-05-19T05:03:03.689Z,101481
2018-05-19T05:05:31.876Z,101479
2018-05-19T05:08:00.007Z,101487
2018-05-19T05:10:28.149Z,101486
2018-05-19T05:12:56.292Z,101487
2018-05-19T05:15:24.438Z,101487
2018-05-19T05:17:52.571Z,101485
2018-05-19T05:20:20.719Z,101486
2018-05-19T05:22:48.853Z,101496
2018-05-19T05:25:17.034Z,101499
2018-05-19T05:27:45.972Z,101497
2018-05-19T05:30:14.244Z,101497
2018-05-19T05:32:42.387Z,101494
2018-05-19T05:35:10.531Z,101497
2018-05-19T05:37:39.429Z,101509
2018-05-19T05:40:08.389Z,101502
2018-05-19T05:42:36.511Z,101507
2018-05-19T05:45:04.660Z,101507
2018-05-19T05:47:33.559Z,101507
2018-05-19T05:50:02.561Z,101506
2018-05-19T05:52:30.608Z,101511
2018-05-19T05:54:59.522Z,101521
2018-05-19T05:57:27.680Z,101510
2018-05-19T05:59:56.629Z,101510
2018-05-19T06:02:24.734Z,101514
2018-05-19T06:04:53.644Z,101514
2018-05-19T06:07:21.817Z,101526
2018-05-19T06:09:51.991Z,101519
2018-05-19T06:12:21.502Z,101530
2018-05-19T06:14:50.547Z,101528
2018-05-19T06:17:18.733Z,101529
2018-05-19T06:19:47.739Z,101535
2018-05-19T06:22:15.878Z,101538
2018-05-19T06:24:44.625Z,101535
2018-05-19T06:27:13.729Z,101535
2018-05-19T06:29:42.653Z,101530
2018-05-19T06:32:11.819Z,101535
2018-05-19T06:34:40.071Z,101537
2018-05-19T06:37:09.932Z,101534
2018-05-19T06:39:38.077Z,101530
2018-05-19T06:42:07.153Z,101526
2018-05-19T06:44:35.997Z,101538
2018-05-19T06:47:04.187Z,101548
2018-05-19T06:49:32.337Z,101537
2018-05-19T06:52:00.580Z,101545
2018-05-19T06:54:29.523Z,101537
2018-05-19T06:56:57.724Z,101540
2018-05-19T06:59:25.955Z,101546
2018-05-19T07:01:54.154Z,101541
2018-05-19T07:04:22.314Z,101545
2018-05-19T07:06:50.437Z,101545
2018-05-19T07:09:19.345Z,101548
2018-05-19T07:11:47.566Z,101550
2018-05-19T07:14:15.814Z,101563
2018-05-19T07:16:43.959Z,101559
2018-05-19T07:19:12.110Z,101559
2018-05-19T07:21:40.230Z,101557
2018-05-19T07:24:08.409Z,101562
2018-05-19T07:26:36.526Z,101564
2018-05-19T07:29:04.666Z,101567
2018-05-19T07:31:33.147Z,101558
2018-05-19T07:34:01.319Z,101559
2018-05-19T07:36:29.486Z,101557
2018-05-19T07:38:57.645Z,101560
2018-05-19T07:41:25.796Z,101555
2018-05-19T07:43:54.667Z,101560
2018-05-19T07:52:35.110Z,101572
2018-05-19T07:58:38.905Z,101565
2018-05-19T08:04:07.561Z,101576
2018-05-19T08:12:47.169Z,101568
2018-05-19T08:15:15.346Z,101561
2018-05-19T08:17:43.586Z,101570
2018-05-19T08:20:14.859Z,101570
2018-05-19T08:22:43.030Z,101571
2018-05-19T08:25:12.343Z,101576
2018-05-19T08:27:41.749Z,101577
2018-05-19T08:30:09.903Z,101570
2018-05-19T08:32:39.648Z,101563
2018-05-19T08:35:07.938Z,101574
2018-05-19T08:37:36.971Z,101569
2018-05-19T08:40:05.108Z,101569
2018-05-19T08:42:34.570Z,101569
2018-05-19T08:45:03.495Z,101569
2018-05-19T08:47:58.144Z,101567
2018-05-19T08:50:26.515Z,101562
2018-05-19T08:52:54.654Z,101568
2018-05-19T08:55:22.802Z,101572
2018-05-19T08:57:51.027Z,101568
2018-05-19T09:00:19.404Z,101566
2018-05-19T09:02:47.582Z,101572
2018-05-19T09:05:16.107Z,101576
2018-05-19T09:07:44.272Z,101574
2018-05-19T09:10:13.186Z,101571
2018-05-19T09:12:41.406Z,101565
2018-05-19T09:15:09.494Z,101562
2018-05-19T09:17:38.385Z,101560
2018-05-19T09:20:07.291Z,101567
2018-05-19T09:22:35.985Z,101559
2018-05-19T09:25:04.132Z,101557
2018-05-19T09:27:35.928Z,101561
2018-05-19T09:33:05.170Z,101553
2018-05-19T09:35:33.327Z,101554
2018-05-19T09:38:01.597Z,101560
2018-05-19T09:40:29.932Z,101552
2018-05-19T09:42:58.064Z,101560
2018-05-19T09:45:26.214Z,101553
2018-05-19T09:47:56.824Z,101553
2018-05-19T09:50:27.143Z,101556
2018-05-19T09:52:56.270Z,101553
2018-05-19T09:55:25.305Z,101552
2018-05-19T09:57:53.552Z,101544
2018-05-19T10:00:21.727Z,101551
2018-05-19T10:02:49.875Z,101554
2018-05-19T10:05:18.155Z,101544
2018-05-19T10:07:46.178Z,101549
2018-05-19T10:10:15.102Z,101554
2018-05-19T10:12:43.641Z,101551
2018-05-19T10:15:11.859Z,101546
2018-05-19T10:17:40.009Z,101549
2018-05-19T10:20:08.911Z,101549
2018-05-19T10:22:37.051Z,101549
2018-05-19T10:25:05.950Z,101552
2018-05-19T10:27:35.173Z,101546
2018-05-19T10:30:03.308Z,101548
2018-05-19T10:32:32.493Z,101548
2018-05-19T10:35:00.653Z,101536
2018-05-19T10:37:28.782Z,101544
2018-05-19T10:39:56.921Z,101541
2018-05-19T10:42:25.073Z,101548
2018-05-19T10:44:53.217Z,101550
2018-05-19T10:47:21.385Z,101550
2018-05-19T10:49:49.532Z,101549
2018-05-19T10:52:18.446Z,101551
2018-05-19T10:54:46.583Z,101554
2018-05-19T10:57:15.518Z,101553
2018-05-19T10:59:43.675Z,101552
2018-05-19T11:02:11.945Z,101555
2018-05-19T11:04:40.913Z,101563
2018-05-19T11:07:10.003Z,101562
2018-05-19T11:09:38.137Z,101556
2018-05-19T11:12:06.370Z,101564
2018-05-19T11:14:34.534Z,101563
2018-05-19T11:17:03.627Z,101565
2018-05-19T11:19:32.684Z,101562
2018-05-19T11:22:00.890Z,101567
2018-05-19T11:24:29.009Z,101566
2018-05-19T11:26:57.152Z,101564
2018-05-19T11:29:25.488Z,101560
2018-05-19T11:31:53.628Z,101559
2018-05-19T11:34:21.753Z,101554
2018-05-19T11:36:50.681Z,101559
2018-05-19T11:39:18.807Z,101557
2018-05-19T11:41:47.249Z,101565
2018-05-19T11:44:15.459Z,101555
2018-05-19T11:46:43.618Z,101561
2018-05-19T11:49:11.774Z,101557
2018-05-19T11:51:39.908Z,101562
2018-05-19T11:54:08.051Z,101557
2018-05-19T11:56:36.211Z,101557
2018-05-19T11:59:04.347Z,101555
2018-05-19T12:01:32.482Z,101552
2018-05-19T12:04:01.380Z,101552
2018-05-19T12:06:30.323Z,101553
2018-05-19T12:08:58.460Z,101555
2018-05-19T12:11:28.892Z,101554
2018-05-19T12:14:00.007Z,101557
2018-05-19T12:16:28.866Z,101556
2018-05-19T12:18:57.419Z,101556
2018-05-19T12:21:25.577Z,101554
2018-05-19T12:23:53.766Z,101550
2018-05-19T12:26:22.057Z,101554
2018-05-19T12:28:50.345Z,101542
2018-05-19T12:31:19.394Z,101553
2018-05-19T12:33:47.583Z,101552
2018-05-19T12:36:15.715Z,101562
2018-05-19T12:38:44.601Z,101554
2018-05-19T12:41:13.507Z,101553
2018-05-19T12:43:41.635Z,101554
2018-05-19T12:46:13.732Z,101550
2018-05-19T12:48:41.909Z,101551
2018-05-19T12:51:10.008Z,101550
2018-05-19T12:53:38.139Z,101552
2018-05-19T12:56:06.272Z,101549
2018-05-19T12:58:34.412Z,101554
2018-05-19T13:01:02.557Z,101556
2018-05-19T13:03:31.523Z,101556
2018-05-19T13:05:59.611Z,101551
2018-05-19T13:08:27.781Z,101557
2018-05-19T13:10:56.022Z,101553
2018-05-19T13:13:24.213Z,101551
2018-05-19T13:15:52.347Z,101542
2018-05-19T13:18:20.510Z,101543
2018-05-19T13:20:48.642Z,101539
2018-05-19T13:23:16.781Z,101543
2018-05-19T13:25:45.170Z,101546
2018-05-19T13:28:14.012Z,101546
2018-05-19T13:30:42.153Z,101536
2018-05-19T13:33:10.316Z,101539
2018-05-19T13:35:38.452Z,101532
2018-05-19T13:38:06.643Z,101534
2018-05-19T13:40:34.882Z,101534
2018-05-19T13:43:03.020Z,101538
2018-05-19T13:45:31.165Z,101532
2018-05-19T13:47:59.307Z,101537
2018-05-19T13:50:28.221Z,101538
2018-05-19T13:52:56.385Z,101537
2018-05-19T13:55:24.533Z,101531
2018-05-19T13:57:52.737Z,101536
2018-05-19T14:00:20.852Z,101533
2018-05-19T14:02:49.769Z,101532
2018-05-19T14:05:17.962Z,101535
2018-05-19T14:07:46.834Z,101531
2018-05-19T14:10:15.111Z,101530
2018-05-19T14:12:43.256Z,101536
2018-05-19T14:15:12.177Z,101531
2018-05-19T14:17:40.601Z,101535
2018-05-19T14:20:13.244Z,101529
2018-05-19T14:22:41.624Z,101532
2018-05-19T14:25:12.487Z,101526
2018-05-19T14:27:40.758Z,101531
2018-05-19T14:30:09.700Z,101524
2018-05-19T14:32:37.859Z,101523
2018-05-19T14:35:06.025Z,101520
2018-05-19T14:37:34.247Z,101512
2018-05-19T14:40:02.437Z,101516
2018-05-19T14:42:30.578Z,101519
2018-05-19T14:44:58.711Z,101518
2018-05-19T14:47:26.858Z,101515
2018-05-19T14:49:54.998Z,101522
2018-05-19T14:52:23.151Z,101523
2018-05-19T14:54:51.299Z,101527
2018-05-19T14:57:19.458Z,101525
2018-05-19T14:59:47.605Z,101521
2018-05-19T15:02:15.792Z,101528
2018-05-19T15:04:43.950Z,101530
2018-05-19T15:07:12.105Z,101527
2018-05-19T15:09:40.242Z,101519
2018-05-19T15:12:09.157Z,101520
2018-05-19T15:14:37.285Z,101517
2018-05-19T15:17:05.425Z,101514
2018-05-19T15:19:33.558Z,101514
2018-05-19T15:22:02.506Z,101507
2018-05-19T15:24:30.632Z,101511
2018-05-19T15:26:58.770Z,101509
2018-05-19T15:29:26.943Z,101506
2018-05-19T15:31:55.090Z,101507
2018-05-19T15:34:23.262Z,101497
2018-05-19T15:36:51.441Z,101498
2018-05-19T15:39:19.586Z,101493
2018-05-19T15:41:47.743Z,101495
2018-05-19T15:44:15.875Z,101494
2018-05-19T15:46:44.033Z,101500
2018-05-19T15:49:13.113Z,101490
2018-05-19T15:51:41.252Z,101493
2018-05-19T15:54:10.161Z,101486
2018-05-19T15:56:38.801Z,101486
2018-05-19T15:59:07.722Z,101481
2018-05-19T16:01:35.837Z,101485
2018-05-19T16:04:04.126Z,101492
2018-05-19T16:06:32.257Z,101494
2018-05-19T16:09:00.385Z,101491
2018-05-19T16:11:29.311Z,101480
2018-05-19T16:13:58.427Z,101488
2018-05-19T16:16:26.573Z,101483
2018-05-19T16:18:54.962Z,101485
2018-05-19T16:21:23.086Z,101486
2018-05-19T16:23:51.246Z,101486
2018-05-19T16:26:19.453Z,101484
2018-05-19T16:28:48.387Z,101482
2018-05-19T16:31:16.536Z,101487
2018-05-19T16:33:45.121Z,101472
2018-05-19T16:36:14.902Z,101479
2018-05-19T16:38:46.003Z,101480
2018-05-19T16:41:14.125Z,101483
2018-05-19T16:43:42.279Z,101479
2018-05-19T16:46:11.204Z,101485
2018-05-19T16:48:39.509Z,101479
2018-05-19T16:51:08.220Z,101483
2018-05-19T16:53:36.402Z,101486
2018-05-19T16:56:06.234Z,101480
2018-05-19T16:58:35.418Z,101480
2018-05-19T17:01:04.370Z,101479
2018-05-19T17:03:32.563Z,101479
2018-05-19T17:06:00.701Z,101476
2018-05-19T17:08:28.846Z,101481
2018-05-19T17:10:56.974Z,101480
2018-05-19T17:13:25.149Z,101479
2018-05-19T17:15:53.277Z,101476
2018-05-19T17:18:21.471Z,101479
2018-05-19T17:20:50.311Z,101469
2018-05-19T17:23:18.456Z,101479
2018-05-19T17:25:46.589Z,101471
2018-05-19T17:28:14.797Z,101475
2018-05-19T17:30:43.460Z,101471
2018-05-19T17:33:11.643Z,101473
2018-05-19T17:35:40.005Z,101473
2018-05-19T17:38:10.014Z,101473
2018-05-19T17:40:39.935Z,101472
2018-05-19T17:43:08.256Z,101479
2018-05-19T17:45:36.793Z,101471
2018-05-19T17:48:05.085Z,101478
2018-05-19T17:50:33.224Z,101474
2018-05-19T17:53:02.240Z,101478
2018-05-19T17:55:34.745Z,101471
2018-05-19T17:58:02.974Z,101473
2018-05-19T18:00:31.149Z,101475
2018-05-19T18:02:59.350Z,101477
2018-05-19T18:05:27.495Z,101466
2018-05-19T18:07:57.198Z,101473
2018-05-19T18:10:25.764Z,101473
2018-05-19T18:12:55.762Z,101477
2018-05-19T18:15:27.471Z,101481
2018-05-19T18:17:55.741Z,101492
2018-05-19T18:20:24.275Z,101476
2018-05-19T18:22:56.332Z,101490
2018-05-19T18:25:24.522Z,101487
2018-05-19T18:27:52.677Z,101483
2018-05-19T18:30:20.882Z,101487
2018-05-19T18:32:50.022Z,101489
2018-05-19T18:35:25.294Z,101490
2018-05-19T18:37:55.466Z,101488
2018-05-19T18:40:24.365Z,101486
2018-05-19T18:42:53.338Z,101488
2018-05-19T18:45:22.579Z,101492
2018-05-19T18:47:50.755Z,101498
2018-05-19T18:50:26.074Z,101502
2018-05-19T18:53:01.249Z,101501
2018-05-19T18:55:30.189Z,101497
2018-05-19T18:57:58.322Z,101511
2018-05-19T19:00:27.237Z,101499
2018-05-19T19:02:55.401Z,101498
2018-05-19T19:05:28.821Z,101493
2018-05-19T19:07:57.169Z,101494
2018-05-19T19:10:26.205Z,101501
2018-05-19T19:15:29.614Z,101512
2018-05-19T19:17:57.830Z,101517
2018-05-19T19:20:26.757Z,101526
2018-05-19T19:22:54.890Z,101521
2018-05-19T19:25:23.955Z,101526
2018-05-19T19:27:52.191Z,101528
2018-05-19T19:30:20.344Z,101528
2018-05-19T19:32:48.641Z,101533
2018-05-19T19:35:16.780Z,101546
2018-05-19T19:37:45.738Z,101544
2018-05-19T19:40:13.888Z,101551
2018-05-19T19:42:42.044Z,101552
2018-05-19T19:45:10.928Z,101558
2018-05-19T19:47:39.097Z,101561
2018-05-19T19:50:07.335Z,101559
2018-05-19T19:52:35.500Z,101569
2018-05-19T19:55:03.651Z,101560
2018-05-19T19:57:31.846Z,101566
2018-05-19T20:00:00.024Z,101568
2018-05-19T20:02:28.169Z,101562
2018-05-19T20:04:56.296Z,101562
2018-05-19T20:07:25.190Z,101562
2018-05-19T20:09:53.322Z,101560
2018-05-19T20:12:21.441Z,101565
2018-05-19T20:14:49.603Z,101566
2018-05-19T20:17:18.502Z,101561
2018-05-19T20:19:46.653Z,101560
2018-05-19T20:22:15.551Z,101569
2018-05-19T20:24:44.475Z,101571
2018-05-19T20:27:12.606Z,101572
2018-05-19T20:29:41.570Z,101568
2018-05-19T20:32:09.716Z,101571
2018-05-19T20:34:37.858Z,101568
2018-05-19T20:37:06.069Z,101576
2018-05-19T20:39:34.176Z,101577
2018-05-19T20:42:02.329Z,101574
2018-05-19T20:44:30.449Z,101575
2018-05-19T20:46:58.603Z,101578
2018-05-19T20:49:27.508Z,101579
2018-05-19T20:51:55.641Z,101582
2018-05-19T20:54:23.782Z,101578
2018-05-19T20:56:51.911Z,101575
2018-05-19T20:59:20.828Z,101576
2018-05-19T21:01:49.007Z,101582
2018-05-19T21:04:17.653Z,101582
2018-05-19T21:06:46.588Z,101583
2018-05-19T21:09:14.731Z,101575
2018-05-19T21:11:42.907Z,101583
2018-05-19T21:14:11.048Z,101582
2018-05-19T21:16:39.213Z,101593
2018-05-19T21:19:07.416Z,101586
2018-05-19T21:21:35.498Z,101593
2018-05-19T21:24:04.384Z,101609
2018-05-19T21:26:33.278Z,101603
2018-05-19T21:29:01.410Z,101602
2018-05-19T21:31:29.547Z,101609
2018-05-19T21:33:57.689Z,101613
2018-05-19T21:36:26.569Z,101623
2018-05-19T21:38:55.474Z,101629
2018-05-19T21:41:23.673Z,101626
2018-05-19T21:43:51.844Z,101622
2018-05-19T21:46:20.004Z,101622
2018-05-19T21:48:48.191Z,101626
2018-05-19T21:51:16.317Z,101621
2018-05-19T21:53:45.244Z,101630
2018-05-19T21:56:13.381Z,101629
2018-05-19T21:58:42.293Z,101632
2018-05-19T22:01:10.443Z,101642
2018-05-19T22:03:40.133Z,101635
2018-05-19T22:06:08.289Z,101637
2018-05-19T22:08:36.416Z,101636
2018-05-19T22:11:05.330Z,101635
2018-05-19T22:13:33.581Z,101636
2018-05-19T22:16:01.735Z,101642
2018-05-19T22:18:30.646Z,101649
2018-05-19T22:20:58.775Z,101644
2018-05-19T22:23:26.927Z,101644
2018-05-19T22:25:55.089Z,101640
2018-05-19T22:28:23.229Z,101648
2018-05-19T22:30:52.113Z,101645
2018-05-19T22:33:21.021Z,101661
2018-05-19T22:35:50.047Z,101648
2018-05-19T22:38:18.176Z,101655
2018-05-19T22:40:46.305Z,101658
2018-05-19T22:43:14.454Z,101659
2018-05-19T22:45:42.638Z,101672
2018-05-19T22:48:10.797Z,101663
2018-05-19T22:50:38.961Z,101680
2018-05-19T22:53:07.080Z,101678
2018-05-19T22:55:35.231Z,101674
2018-05-19T22:58:03.399Z,101676
2018-05-19T23:00:31.625Z,101681
2018-05-19T23:03:03.437Z,101676
2018-05-19T23:05:31.632Z,101680
2018-05-19T23:07:59.718Z,101679
2018-05-19T23:10:28.619Z,101679
2018-05-19T23:12:57.497Z,101684
2018-05-19T23:15:26.414Z,101680
2018-05-19T23:17:54.542Z,101682
2018-05-19T23:20:22.699Z,101695
2018-05-19T23:22:54.812Z,101693
2018-05-19T23:25:23.485Z,101687
2018-05-19T23:27:52.400Z,101696
2018-05-19T23:30:20.788Z,101696
2018-05-19T23:32:51.327Z,101699
2018-05-19T23:35:19.493Z,101698
2018-05-19T23:37:48.603Z,101706
2018-05-19T23:40:16.774Z,101705
2018-05-19T23:42:44.905Z,101711
2018-05-19T23:45:13.050Z,101711
2018-05-19T23:47:41.678Z,101707
2018-05-19T23:50:10.914Z,101704
2018-05-19T23:52:40.951Z,101713
2018-05-19T23:55:09.172Z,101705
2018-05-19T23:57:37.309Z,101708
